Time;durP1;ratioP1;P1;durP2;ratioP2;P2;SDS_P1;SDS_P2;PMS_P1;PMS_P2;Temp;Humidity;BMP_temperature;BMP_pressure;BME280_temperature;BME280_humidity;BME280_pressure;Samples;Min_cycle;Max_cycle;Signal;HPM_P1;HPM_P2
2023/03/03 00:00:50;;;;;;;19.13;10.77;;;0.20;99.90;;;;;;5015867;28;20422;-69
2023/03/03 00:03:19;;;;;;;19.03;10.17;;;0.20;99.90;;;;;;5033752;28;20603;-72
2023/03/03 00:05:45;;;;;;;12.93;8.17;;;0.20;99.90;;;;;;5034322;28;20238;-72
2023/03/03 00:08:11;;;;;;;15.63;9.43;;;0.20;99.90;;;;;;5034992;28;20450;-70
2023/03/03 00:10:37;;;;;;;13.47;8.07;;;0.10;99.90;;;;;;5033930;28;20937;-69
2023/03/03 00:13:05;;;;;;;18.80;10.07;;;0.20;99.90;;;;;;5033586;28;20422;-68
2023/03/03 00:15:31;;;;;;;15.43;9.40;;;0.20;99.90;;;;;;5033536;28;20469;-70
2023/03/03 00:17:58;;;;;;;20.73;10.47;;;0.20;99.90;;;;;;5033681;28;20418;-69
2023/03/03 00:20:32;;;;;;;18.90;10.00;;;0.20;99.90;;;;;;5033301;28;20220;-70
2023/03/03 00:23:25;;;;;;;17.07;8.70;;;0.20;99.90;;;;;;5033637;28;20406;-71
2023/03/03 00:25:52;;;;;;;18.97;8.87;;;0.30;99.90;;;;;;5028361;28;20476;-69
2023/03/03 00:28:39;;;;;;;15.43;9.57;;;0.30;99.90;;;;;;5033491;28;20422;-70
2023/03/03 00:31:15;;;;;;;12.60;8.00;;;0.20;99.90;;;;;;5033129;28;20410;-68
2023/03/03 00:33:47;;;;;;;16.27;8.93;;;0.10;99.90;;;;;;5036289;28;20910;-70
2023/03/03 00:36:15;;;;;;;15.23;8.90;;;0.20;99.90;;;;;;5034947;28;20466;-69
2023/03/03 00:38:42;;;;;;;18.83;9.90;;;0.20;99.90;;;;;;5033573;28;20414;-70
2023/03/03 00:41:19;;;;;;;14.73;9.40;;;0.20;99.90;;;;;;5033628;28;20410;-71
2023/03/03 00:43:44;;;;;;;13.77;8.27;;;0.30;99.90;;;;;;5033657;28;20472;-71
2023/03/03 00:46:16;;;;;;;14.40;8.97;;;0.30;99.90;;;;;;5033427;28;20759;-71
2023/03/03 00:48:42;;;;;;;16.87;9.37;;;0.30;99.90;;;;;;5033740;28;20236;-71
2023/03/03 00:51:26;;;;;;;19.30;10.00;;;0.20;99.90;;;;;;5036536;28;20759;-70
2023/03/03 00:53:52;;;;;;;19.80;10.93;;;0.20;99.90;;;;;;5033007;28;20489;-70
2023/03/03 00:56:19;;;;;;;15.13;9.00;;;0.20;99.90;;;;;;5032713;28;20473;-69
2023/03/03 00:58:46;;;;;;;15.23;10.50;;;0.20;99.90;;;;;;5032802;28;20407;-70
2023/03/03 01:01:13;;;;;;;18.10;11.37;;;0.30;99.90;;;;;;5032492;28;20552;-71
2023/03/03 01:03:39;;;;;;;16.63;8.80;;;0.20;99.90;;;;;;5033273;28;20413;-72
2023/03/03 01:06:04;;;;;;;13.87;9.43;;;0.20;99.90;;;;;;5032419;28;20470;-70
2023/03/03 01:08:30;;;;;;;20.50;9.77;;;0.30;99.90;;;;;;5032631;28;20197;-69
2023/03/03 01:11:02;;;;;;;14.37;9.33;;;0.40;99.90;;;;;;5032473;28;20241;-70
2023/03/03 01:13:30;;;;;;;17.23;8.70;;;0.30;99.90;;;;;;5036204;28;20198;-71
2023/03/03 01:15:56;;;;;;;17.53;9.77;;;0.30;99.90;;;;;;5032115;28;21199;-69
2023/03/03 01:18:21;;;;;;;19.50;9.70;;;0.40;99.90;;;;;;5030899;28;20513;-69
2023/03/03 01:20:47;;;;;;;17.50;9.93;;;0.20;99.90;;;;;;5032255;28;20422;-70
2023/03/03 01:23:13;;;;;;;16.50;9.97;;;0.20;99.90;;;;;;5032268;28;20185;-69
2023/03/03 01:25:39;;;;;;;14.90;8.10;;;0.20;99.90;;;;;;5034433;28;20199;-69
2023/03/03 01:28:05;;;;;;;14.73;8.20;;;0.30;99.90;;;;;;5032210;28;20441;-70
2023/03/03 01:30:31;;;;;;;18.10;8.60;;;0.40;99.90;;;;;;5032367;28;20414;-71
2023/03/03 01:32:59;;;;;;;19.50;11.93;;;0.40;99.90;;;;;;5032250;28;20187;-70
2023/03/03 01:35:25;;;;;;;18.37;10.03;;;0.40;99.90;;;;;;5031614;28;20553;-70
2023/03/03 01:37:51;;;;;;;21.77;10.00;;;0.40;99.90;;;;;;5032069;28;20422;-70
2023/03/03 01:40:26;;;;;;;19.87;10.07;;;0.40;99.90;;;;;;5031585;28;20471;-70
2023/03/03 01:42:52;;;;;;;18.27;9.87;;;0.40;99.90;;;;;;5031869;28;20412;-71
2023/03/03 01:45:25;;;;;;;15.20;10.17;;;0.40;99.90;;;;;;5031529;28;20430;-70
2023/03/03 01:48:05;;;;;;;22.13;11.37;;;0.30;99.90;;;;;;5031598;28;20510;-70
2023/03/03 01:50:52;;;;;;;22.03;11.43;;;0.30;99.90;;;;;;5028621;28;20522;-72
2023/03/03 01:53:41;;;;;;;18.43;11.53;;;0.30;99.90;;;;;;5031831;28;20418;-70
2023/03/03 01:56:08;;;;;;;16.13;9.30;;;0.10;99.90;;;;;;5028655;28;20809;-70
2023/03/03 01:58:51;;;;;;;15.70;10.57;;;0.10;99.90;;;;;;5014124;28;20415;-71
2023/03/03 02:01:23;;;;;;;18.00;10.27;;;0.20;99.90;;;;;;5030460;28;20406;-70
2023/03/03 02:03:50;;;;;;;22.73;11.60;;;0.30;99.90;;;;;;5031926;28;20501;-70
2023/03/03 02:06:27;;;;;;;18.53;10.73;;;0.20;99.90;;;;;;5029208;28;20482;-68
2023/03/03 02:09:00;;;;;;;25.70;12.93;;;0.30;99.90;;;;;;5031490;28;20796;-70
2023/03/03 02:11:30;;;;;;;16.80;9.97;;;0.30;99.90;;;;;;5031139;28;20428;-70
2023/03/03 02:13:55;;;;;;;18.40;11.00;;;0.20;99.90;;;;;;5013450;28;20418;-71
2023/03/03 02:16:24;;;;;;;26.20;10.87;;;0.20;99.90;;;;;;5030877;28;21052;-71
2023/03/03 02:18:55;;;;;;;17.70;10.10;;;0.20;99.90;;;;;;5031046;28;20909;-70
2023/03/03 02:21:30;;;;;;;18.90;11.30;;;0.10;99.90;;;;;;5030865;28;20434;-71
2023/03/03 02:24:04;;;;;;;18.27;10.37;;;0.20;99.90;;;;;;5031201;28;20414;-71
2023/03/03 02:26:41;;;;;;;16.13;10.83;;;0.20;99.90;;;;;;5029976;28;20433;-69
2023/03/03 02:29:10;;;;;;;15.60;10.10;;;0.30;99.90;;;;;;5031575;28;20433;-70
2023/03/03 02:31:39;;;;;;;18.17;10.93;;;0.20;99.90;;;;;;5031145;28;20505;-69
2023/03/03 02:34:08;;;;;;;24.43;13.00;;;0.20;99.90;;;;;;5031118;28;20428;-69
2023/03/03 02:36:37;;;;;;;16.83;11.40;;;0.20;99.90;;;;;;5030693;28;20522;-70
2023/03/03 02:39:09;;;;;;;16.17;9.57;;;0.20;99.90;;;;;;5030891;28;20418;-68
2023/03/03 02:41:50;;;;;;;20.40;13.73;;;0.20;99.90;;;;;;5030800;28;20410;-70
2023/03/03 02:44:27;;;;;;;22.50;11.17;;;0.30;99.90;;;;;;5030775;28;20414;-69
2023/03/03 02:47:03;;;;;;;18.63;13.00;;;0.30;99.90;;;;;;5031773;28;20772;-69
2023/03/03 02:49:32;;;;;;;18.77;11.87;;;0.20;99.90;;;;;;5023017;28;20406;-70
2023/03/03 02:51:59;;;;;;;21.63;14.60;;;0.10;99.90;;;;;;5030756;28;20418;-70
2023/03/03 02:54:29;;;;;;;18.73;11.40;;;0.10;99.90;;;;;;5053726;23;20536;-63
2023/03/03 02:56:54;;;;;;;16.60;9.20;;;0.10;99.90;;;;;;5000965;28;20814;-64
2023/03/03 02:59:20;;;;;;;22.87;12.97;;;0.00;99.90;;;;;;4994879;28;20404;-64
2023/03/03 03:01:46;;;;;;;20.73;12.10;;;0.00;99.90;;;;;;4996703;28;20165;-64
2023/03/03 03:04:15;;;;;;;13.50;9.87;;;-0.10;99.90;;;;;;4998148;28;20354;-65
2023/03/03 03:06:40;;;;;;;23.07;11.30;;;0.00;99.90;;;;;;4987811;28;20985;-65
2023/03/03 03:09:07;;;;;;;20.60;11.40;;;0.10;99.90;;;;;;4989941;28;20472;-64
2023/03/03 03:11:34;;;;;;;20.33;12.00;;;0.10;99.90;;;;;;4982381;28;20264;-62
2023/03/03 03:14:00;;;;;;;15.33;10.43;;;0.00;99.90;;;;;;4983267;28;20410;-62
2023/03/03 03:16:26;;;;;;;16.83;9.70;;;-0.10;99.90;;;;;;4986607;28;20469;-62
2023/03/03 03:18:51;;;;;;;21.27;11.83;;;-0.10;99.90;;;;;;4987198;28;20446;-63
2023/03/03 03:21:17;;;;;;;18.10;12.37;;;0.00;99.90;;;;;;4987968;28;20227;-63
2023/03/03 03:23:43;;;;;;;15.67;9.40;;;0.00;99.90;;;;;;4981602;28;20169;-63
2023/03/03 03:26:09;;;;;;;13.20;8.17;;;0.00;99.90;;;;;;4987114;28;20845;-63
2023/03/03 03:28:35;;;;;;;16.23;9.40;;;0.00;99.90;;;;;;4986380;28;20186;-63
2023/03/03 03:31:02;;;;;;;15.50;9.07;;;0.00;99.90;;;;;;4981379;28;20439;-63
2023/03/03 03:33:28;;;;;;;23.47;11.27;;;0.00;99.90;;;;;;4971410;28;20409;-64
2023/03/03 03:35:54;;;;;;;22.73;11.00;;;-0.10;99.90;;;;;;4984468;28;20465;-65
2023/03/03 03:38:20;;;;;;;13.20;10.53;;;-0.10;99.90;;;;;;4980378;28;20174;-64
2023/03/03 03:40:46;;;;;;;13.83;9.87;;;0.00;99.90;;;;;;4983428;28;20413;-63
2023/03/03 03:43:12;;;;;;;15.67;9.07;;;0.00;99.90;;;;;;4988226;28;20452;-64
2023/03/03 03:45:38;;;;;;;17.53;9.90;;;0.00;99.90;;;;;;4985498;28;20273;-64
2023/03/03 03:48:03;;;;;;;17.53;10.87;;;-0.10;99.90;;;;;;4988152;28;20893;-64
2023/03/03 03:50:29;;;;;;;16.53;8.57;;;-0.10;99.90;;;;;;4984579;28;20421;-65
2023/03/03 03:52:55;;;;;;;20.43;9.63;;;-0.20;99.90;;;;;;4980081;28;20186;-64
2023/03/03 03:55:21;;;;;;;21.20;10.57;;;-0.30;99.90;;;;;;4986538;28;20287;-65
2023/03/03 03:57:47;;;;;;;16.20;9.37;;;-0.30;99.90;;;;;;4986346;28;20272;-64
2023/03/03 04:00:13;;;;;;;17.27;10.10;;;-0.20;99.90;;;;;;4990109;28;20848;-64
2023/03/03 04:02:38;;;;;;;19.67;12.00;;;-0.10;99.90;;;;;;4988438;28;20208;-63
2023/03/03 04:05:04;;;;;;;21.73;10.10;;;-0.10;99.90;;;;;;4991940;28;20814;-62
2023/03/03 04:07:30;;;;;;;20.57;10.80;;;-0.10;99.90;;;;;;4981857;28;20177;-63
2023/03/03 04:09:56;;;;;;;20.77;10.20;;;-0.30;99.90;;;;;;4985321;28;20433;-64
2023/03/03 04:12:21;;;;;;;15.60;9.77;;;-0.20;99.90;;;;;;4989036;28;20193;-63
2023/03/03 04:14:47;;;;;;;16.70;11.50;;;-0.40;99.90;;;;;;4984882;28;20276;-65
2023/03/03 04:17:17;;;;;;;16.23;9.70;;;-0.40;99.90;;;;;;4980857;28;20182;-63
2023/03/03 04:19:43;;;;;;;15.13;8.77;;;-0.40;99.90;;;;;;4986357;28;20256;-63
2023/03/03 04:22:08;;;;;;;18.03;9.90;;;-0.30;99.90;;;;;;4986557;28;20504;-64
2023/03/03 04:24:34;;;;;;;16.10;9.03;;;-0.30;99.90;;;;;;4984066;28;20903;-63
2023/03/03 04:27:00;;;;;;;18.57;9.80;;;-0.40;99.90;;;;;;4982747;28;20250;-64
2023/03/03 04:29:25;;;;;;;21.13;11.13;;;-0.50;99.90;;;;;;4983825;28;20177;-63
2023/03/03 04:31:51;;;;;;;18.67;10.60;;;-0.50;99.90;;;;;;4990530;28;20263;-63
2023/03/03 04:34:17;;;;;;;17.60;10.50;;;-0.40;99.90;;;;;;4987167;28;20187;-63
2023/03/03 04:36:42;;;;;;;17.57;8.70;;;-0.30;99.90;;;;;;4989792;28;20200;-63
2023/03/03 04:39:08;;;;;;;18.13;10.27;;;-0.30;99.90;;;;;;4991296;28;20185;-64
2023/03/03 04:41:34;;;;;;;20.20;10.50;;;-0.30;99.90;;;;;;4986797;28;20169;-62
2023/03/03 04:43:59;;;;;;;14.10;9.20;;;-0.40;99.90;;;;;;4981786;28;20182;-63
2023/03/03 04:46:25;;;;;;;14.60;9.13;;;-0.60;99.90;;;;;;4987889;28;20429;-64
2023/03/03 04:48:51;;;;;;;14.93;8.77;;;-0.70;99.90;;;;;;4988011;28;20173;-64
2023/03/03 04:51:17;;;;;;;14.70;9.67;;;-0.60;99.90;;;;;;4984195;28;20185;-64
2023/03/03 04:53:43;;;;;;;18.73;9.73;;;-0.70;99.90;;;;;;4985741;28;20417;-64
2023/03/03 04:56:08;;;;;;;20.63;11.20;;;-0.60;99.90;;;;;;4983279;28;20793;-64
2023/03/03 04:58:34;;;;;;;15.07;9.30;;;-0.60;99.90;;;;;;4985707;28;20615;-63
2023/03/03 05:00:59;;;;;;;14.07;8.00;;;-0.60;99.90;;;;;;4989784;28;20549;-66
2023/03/03 05:03:25;;;;;;;18.73;8.93;;;-0.80;99.90;;;;;;4988499;28;20228;-66
2023/03/03 05:05:52;;;;;;;15.47;9.40;;;-0.70;99.90;;;;;;4983080;28;20202;-64
2023/03/03 05:08:18;;;;;;;13.47;8.53;;;-0.80;99.90;;;;;;4982127;28;20730;-64
2023/03/03 05:10:43;;;;;;;12.67;8.67;;;-0.70;99.90;;;;;;4985834;28;20487;-64
2023/03/03 05:13:09;;;;;;;18.23;9.47;;;-0.70;99.90;;;;;;4980769;28;20181;-64
2023/03/03 05:15:35;;;;;;;16.63;8.60;;;-0.70;99.90;;;;;;4985047;28;20325;-64
2023/03/03 05:18:00;;;;;;;14.67;8.30;;;-0.70;99.90;;;;;;4989235;28;20420;-62
2023/03/03 05:20:26;;;;;;;15.67;8.13;;;-0.60;99.90;;;;;;4987229;28;20166;-65
2023/03/03 05:22:52;;;;;;;16.00;9.10;;;-0.60;99.90;;;;;;4979652;28;20174;-64
2023/03/03 05:25:19;;;;;;;15.93;7.70;;;-0.60;99.90;;;;;;4981728;28;20559;-64
2023/03/03 05:27:45;;;;;;;13.70;8.50;;;-0.60;99.90;;;;;;4985030;28;20231;-63
2023/03/03 05:30:11;;;;;;;18.10;9.80;;;-0.70;99.90;;;;;;4980498;28;20508;-64
2023/03/03 05:32:37;;;;;;;14.60;7.13;;;-0.60;99.90;;;;;;4985070;28;20185;-63
2023/03/03 05:35:04;;;;;;;18.10;10.70;;;-0.60;99.90;;;;;;4982697;28;20495;-62
2023/03/03 05:37:30;;;;;;;16.70;9.50;;;-0.60;99.90;;;;;;4986677;28;20316;-64
2023/03/03 05:39:55;;;;;;;20.17;10.20;;;-0.60;99.90;;;;;;4989303;28;20495;-63
2023/03/03 05:42:21;;;;;;;14.20;8.87;;;-0.60;99.90;;;;;;4982797;28;20687;-64
2023/03/03 05:44:46;;;;;;;12.47;8.97;;;-0.50;99.90;;;;;;4988659;28;20205;-65
2023/03/03 05:47:12;;;;;;;17.53;9.03;;;-0.50;99.90;;;;;;4984847;28;20506;-63
2023/03/03 05:49:38;;;;;;;20.97;9.83;;;-0.70;99.90;;;;;;4988254;28;20183;-64
2023/03/03 05:52:04;;;;;;;16.37;8.50;;;-0.80;99.90;;;;;;4980161;28;20533;-65
2023/03/03 05:54:30;;;;;;;20.10;9.70;;;-0.80;99.90;;;;;;4982065;28;20424;-65
2023/03/03 05:56:56;;;;;;;28.30;11.17;;;-0.90;99.90;;;;;;4981494;28;20173;-64
2023/03/03 05:59:23;;;;;;;19.63;9.10;;;-0.90;99.90;;;;;;4985169;28;20409;-63
2023/03/03 06:01:48;;;;;;;16.03;7.93;;;-0.80;99.90;;;;;;4982670;28;20184;-64
2023/03/03 06:04:14;;;;;;;11.03;7.40;;;-0.90;99.90;;;;;;4981071;28;20417;-63
2023/03/03 06:06:40;;;;;;;17.47;8.73;;;-0.70;99.90;;;;;;4981617;28;20271;-64
2023/03/03 06:09:05;;;;;;;15.40;8.50;;;-0.70;99.90;;;;;;4989860;28;21858;-64
2023/03/03 06:11:31;;;;;;;15.07;8.40;;;-0.70;99.90;;;;;;4982343;28;20196;-64
2023/03/03 06:13:57;;;;;;;14.37;7.97;;;-0.60;99.90;;;;;;4989284;28;20177;-64
2023/03/03 06:16:22;;;;;;;10.53;6.50;;;-0.60;99.90;;;;;;4986449;28;20675;-65
2023/03/03 06:18:48;;;;;;;17.77;9.43;;;-0.60;99.90;;;;;;4990664;28;20181;-64
2023/03/03 06:21:13;;;;;;;16.03;9.27;;;-0.60;99.90;;;;;;4985004;28;20184;-65
2023/03/03 06:23:40;;;;;;;15.93;9.20;;;-0.70;99.90;;;;;;4988232;28;20338;-64
2023/03/03 06:26:05;;;;;;;20.30;9.23;;;-0.70;99.90;;;;;;4979839;28;20375;-64
2023/03/03 06:28:32;;;;;;;16.00;7.90;;;-0.60;99.90;;;;;;4981704;28;20527;-63
2023/03/03 06:30:58;;;;;;;16.57;8.20;;;-0.60;99.90;;;;;;4981021;28;20451;-64
2023/03/03 06:33:23;;;;;;;14.23;7.13;;;-0.50;99.90;;;;;;4981161;28;20239;-64
2023/03/03 06:35:50;;;;;;;13.60;7.80;;;-0.50;99.90;;;;;;4981774;28;20558;-64
2023/03/03 06:38:16;;;;;;;18.90;6.83;;;-0.50;99.90;;;;;;4980573;28;20173;-64
2023/03/03 06:40:42;;;;;;;12.90;7.30;;;-0.70;99.90;;;;;;4983012;28;20427;-65
2023/03/03 06:43:08;;;;;;;12.53;6.97;;;-0.60;99.90;;;;;;4985017;28;20269;-64
2023/03/03 06:45:34;;;;;;;17.20;7.83;;;-0.60;99.90;;;;;;4988480;28;20292;-64
2023/03/03 06:48:00;;;;;;;14.23;6.13;;;-0.50;99.90;;;;;;4981660;28;20420;-64
2023/03/03 06:50:26;;;;;;;9.50;6.77;;;-0.70;99.90;;;;;;4978470;28;20277;-64
2023/03/03 06:53:13;;;;;;;10.83;6.40;;;-0.80;99.90;;;;;;4982856;28;20507;-64
2023/03/03 06:55:39;;;;;;;11.70;6.17;;;-0.70;99.90;;;;;;4975871;28;20339;-65
2023/03/03 06:58:14;;;;;;;8.60;5.30;;;-0.80;99.90;;;;;;4978701;28;20409;-64
2023/03/03 07:00:42;;;;;;;11.57;6.00;;;-0.60;99.90;;;;;;4981640;28;20411;-64
2023/03/03 07:03:15;;;;;;;13.40;7.67;;;-0.70;99.90;;;;;;4985886;28;20408;-64
2023/03/03 07:05:41;;;;;;;14.93;7.07;;;-0.70;99.90;;;;;;4981851;28;20475;-64
2023/03/03 07:08:17;;;;;;;14.93;8.20;;;-0.70;99.90;;;;;;4985019;28;20510;-64
2023/03/03 07:10:44;;;;;;;14.20;7.07;;;-0.60;99.90;;;;;;4981641;28;20412;-64
2023/03/03 07:13:20;;;;;;;10.33;6.63;;;-0.70;99.90;;;;;;4980805;28;20420;-64
2023/03/03 07:15:47;;;;;;;12.40;8.70;;;-0.60;99.90;;;;;;4975621;28;20464;-64
2023/03/03 07:18:46;;;;;;;12.67;8.07;;;-0.40;99.90;;;;;;4981294;28;20492;-64
2023/03/03 07:21:20;;;;;;;13.53;7.53;;;-0.40;99.90;;;;;;4983914;28;20427;-64
2023/03/03 07:23:48;;;;;;;16.10;8.10;;;-0.30;99.90;;;;;;4986344;28;20401;-64
2023/03/03 07:26:21;;;;;;;20.20;7.00;;;-0.20;99.90;;;;;;4983578;28;20480;-64
2023/03/03 07:28:57;;;;;;;14.80;8.07;;;-0.20;99.90;;;;;;4981725;28;20416;-65
2023/03/03 07:31:35;;;;;;;13.93;7.70;;;-0.20;99.90;;;;;;4985539;28;20415;-65
2023/03/03 07:34:14;;;;;;;18.97;9.10;;;-0.30;99.90;;;;;;4978296;28;20488;-64
2023/03/03 07:36:40;;;;;;;11.90;7.43;;;-0.30;99.90;;;;;;4978873;28;20876;-63
2023/03/03 07:39:33;;;;;;;13.50;9.13;;;-0.20;99.90;;;;;;4983511;28;20441;-65
2023/03/03 07:42:20;;;;;;;11.77;7.30;;;-0.20;99.90;;;;;;4987287;28;20161;-64
2023/03/03 07:44:48;;;;;;;15.60;8.80;;;-0.30;99.90;;;;;;4975570;28;20468;-63
2023/03/03 07:47:26;;;;;;;17.57;8.23;;;-0.20;99.90;;;;;;4983850;28;20412;-65
2023/03/03 07:49:54;;;;;;;12.30;6.97;;;-0.10;99.90;;;;;;4984680;28;20419;-64
2023/03/03 07:52:25;;;;;;;14.23;8.33;;;-0.30;99.90;;;;;;4992391;28;20701;-65
2023/03/03 07:54:52;;;;;;;13.03;6.90;;;-0.40;99.90;;;;;;4984234;28;20475;-65
2023/03/03 07:57:26;;;;;;;10.20;5.57;;;-0.40;99.90;;;;;;4990433;28;20413;-64
2023/03/03 08:00:12;;;;;;;12.37;7.53;;;-0.30;99.90;;;;;;4984575;28;20466;-64
2023/03/03 08:02:44;;;;;;;8.50;5.33;;;-0.30;99.90;;;;;;4984830;28;20783;-64
2023/03/03 08:05:30;;;;;;;11.90;7.43;;;-0.10;99.90;;;;;;4986188;28;20863;-64
2023/03/03 08:08:29;;;;;;;18.03;10.80;;;-0.10;99.90;;;;;;4980881;28;20428;-63
2023/03/03 08:10:56;;;;;;;23.03;9.60;;;-0.10;99.90;;;;;;4979685;28;20953;-64
2023/03/03 08:13:24;;;;;;;27.80;11.73;;;0.00;99.90;;;;;;4983556;28;20912;-64
2023/03/03 08:15:53;;;;;;;13.60;7.97;;;0.00;99.90;;;;;;4986173;28;20502;-63
2023/03/03 08:18:49;;;;;;;10.03;7.57;;;-0.10;99.90;;;;;;4983994;28;20807;-64
2023/03/03 08:21:22;;;;;;;16.70;8.80;;;0.00;99.90;;;;;;4979305;28;20424;-64
2023/03/03 08:23:50;;;;;;;13.90;7.73;;;-0.10;99.90;;;;;;4984026;28;20423;-63
2023/03/03 08:26:17;;;;;;;11.37;7.30;;;0.00;99.90;;;;;;4989290;28;20441;-63
2023/03/03 08:28:42;;;;;;;18.20;9.37;;;0.00;99.90;;;;;;4982912;28;20419;-64
2023/03/03 08:31:08;;;;;;;18.67;9.27;;;0.00;99.90;;;;;;4984008;28;20468;-64
2023/03/03 08:33:34;;;;;;;24.60;11.70;;;0.30;99.90;;;;;;4983827;28;20609;-63
2023/03/03 08:35:59;;;;;;;21.73;11.47;;;0.50;99.90;;;;;;4983518;28;20204;-63
2023/03/03 08:38:25;;;;;;;19.00;12.00;;;0.40;99.90;;;;;;4983695;28;20532;-66
2023/03/03 08:40:51;;;;;;;18.10;11.97;;;0.40;99.90;;;;;;4991795;28;20636;-66
2023/03/03 08:43:20;;;;;;;15.17;7.30;;;0.30;99.90;;;;;;4981823;28;20263;-64
2023/03/03 08:45:51;;;;;;;10.50;5.70;;;0.40;99.90;;;;;;4991968;28;20199;-65
2023/03/03 08:48:17;;;;;;;13.77;6.60;;;0.70;99.90;;;;;;4984716;28;20486;-63
2023/03/03 08:50:43;;;;;;;10.93;7.70;;;0.80;99.90;;;;;;4985741;28;20413;-66
2023/03/03 08:53:10;;;;;;;11.80;5.53;;;0.70;99.90;;;;;;4985873;28;20579;-65
2023/03/03 08:55:37;;;;;;;8.70;6.47;;;0.80;99.90;;;;;;4968327;28;20928;-64
2023/03/03 08:58:03;;;;;;;13.10;9.60;;;0.60;99.90;;;;;;4984766;28;20417;-62
2023/03/03 09:00:28;;;;;;;17.90;6.60;;;0.50;99.90;;;;;;4984045;28;20879;-64
2023/03/03 09:02:54;;;;;;;9.13;6.33;;;0.60;99.90;;;;;;4980168;28;20261;-64
2023/03/03 09:05:21;;;;;;;12.53;8.20;;;0.90;99.90;;;;;;4984969;28;20697;-64
2023/03/03 09:07:47;;;;;;;11.73;6.63;;;1.20;99.90;;;;;;4985383;28;20177;-64
2023/03/03 09:10:15;;;;;;;9.87;5.10;;;1.20;99.90;;;;;;4987671;28;20428;-64
2023/03/03 09:12:47;;;;;;;14.77;7.20;;;1.00;99.90;;;;;;4985042;28;20415;-65
2023/03/03 09:15:25;;;;;;;14.23;8.10;;;1.30;99.90;;;;;;4987809;28;20521;-65
2023/03/03 09:17:52;;;;;;;13.30;7.37;;;1.50;99.90;;;;;;4983229;28;20401;-64
2023/03/03 09:20:23;;;;;;;19.67;8.47;;;1.30;99.90;;;;;;4986886;28;20854;-64
2023/03/03 09:22:49;;;;;;;15.80;8.80;;;1.10;99.90;;;;;;4979339;28;20492;-65
2023/03/03 09:25:36;;;;;;;15.00;9.40;;;1.00;99.90;;;;;;4988476;28;20443;-66
2023/03/03 09:28:02;;;;;;;15.77;10.40;;;1.10;99.90;;;;;;4980644;28;20417;-66
2023/03/03 09:30:47;;;;;;;14.57;9.10;;;1.40;99.90;;;;;;4976867;28;20466;-65
2023/03/03 09:33:22;;;;;;;10.40;7.30;;;1.60;99.90;;;;;;4985033;28;20462;-67
2023/03/03 09:35:51;;;;;;;12.23;7.50;;;1.80;99.90;;;;;;4988961;28;20467;-71
2023/03/03 09:38:27;;;;;;;15.10;8.27;;;1.70;99.90;;;;;;4982175;28;20420;-65
2023/03/03 09:41:30;;;;;;;10.63;7.03;;;1.60;99.90;;;;;;4985832;28;20506;-66
2023/03/03 09:44:02;;;;;;;8.80;6.50;;;1.70;99.90;;;;;;4979739;28;20456;-65
2023/03/03 09:46:35;;;;;;;7.80;5.93;;;1.80;99.90;;;;;;4972462;28;20916;-66
2023/03/03 09:49:38;;;;;;;6.83;5.07;;;2.10;99.90;;;;;;4979727;28;20423;-66
2023/03/03 09:52:25;;;;;;;10.83;7.00;;;1.80;99.90;;;;;;4976853;28;20411;-64
2023/03/03 09:55:35;;;;;;;11.10;7.00;;;1.50;99.90;;;;;;4987072;28;20464;-64
2023/03/03 09:58:19;;;;;;;11.53;6.20;;;1.50;99.90;;;;;;4970014;28;20766;-64
2023/03/03 10:01:17;;;;;;;14.83;6.77;;;1.40;99.90;;;;;;4981422;28;20504;-63
2023/03/03 10:04:20;;;;;;;11.60;8.17;;;1.50;99.90;;;;;;4972844;28;20400;-63
2023/03/03 10:07:12;;;;;;;15.03;9.30;;;2.00;99.90;;;;;;4980012;28;20412;-65
2023/03/03 10:10:05;;;;;;;12.00;7.53;;;2.10;99.90;;;;;;4975053;28;20754;-64
2023/03/03 10:12:37;;;;;;;14.10;8.73;;;2.20;99.90;;;;;;4981156;28;20406;-65
2023/03/03 10:15:21;;;;;;;15.87;8.30;;;2.30;99.90;;;;;;4987276;28;20459;-63
2023/03/03 10:17:53;;;;;;;16.53;9.03;;;2.30;99.90;;;;;;4979172;28;20412;-65
2023/03/03 10:20:39;;;;;;;13.87;8.43;;;2.20;99.90;;;;;;4987044;28;20500;-64
2023/03/03 10:23:42;;;;;;;16.93;9.67;;;1.90;99.90;;;;;;4979945;28;20393;-64
2023/03/03 10:26:31;;;;;;;14.03;11.47;;;2.10;99.90;;;;;;4988343;28;20467;-64
2023/03/03 10:29:26;;;;;;;18.63;12.10;;;2.10;99.90;;;;;;4983054;28;20412;-64
2023/03/03 10:32:40;;;;;;;18.10;11.00;;;2.20;99.90;;;;;;4982216;28;20404;-66
2023/03/03 10:35:22;;;;;;;22.47;11.20;;;2.20;99.90;;;;;;4962777;28;20523;-64
2023/03/03 10:38:19;;;;;;;24.90;14.50;;;2.50;99.90;;;;;;4985172;28;20515;-64
2023/03/03 10:40:50;;;;;;;26.00;14.10;;;2.60;99.90;;;;;;4977995;28;20415;-64
2023/03/03 10:43:36;;;;;;;23.57;14.77;;;2.40;99.90;;;;;;4981456;28;20494;-62
2023/03/03 10:46:18;;;;;;;20.67;11.50;;;2.60;99.90;;;;;;4983156;28;20937;-64
2023/03/03 10:48:43;;;;;;;22.80;12.77;;;2.80;99.90;;;;;;4976393;28;20495;-63
2023/03/03 10:51:35;;;;;;;17.13;10.73;;;2.90;99.90;;;;;;4989718;28;20411;-66
2023/03/03 10:54:37;;;;;;;17.37;11.47;;;2.80;99.90;;;;;;4991582;28;20185;-65
2023/03/03 10:57:23;;;;;;;13.10;9.07;;;2.70;99.90;;;;;;4982973;28;20441;-64
2023/03/03 11:00:17;;;;;;;16.97;9.90;;;2.50;99.90;;;;;;4989570;28;20450;-65
2023/03/03 11:02:52;;;;;;;15.50;11.20;;;2.50;99.90;;;;;;4983455;28;20761;-64
2023/03/03 11:06:00;;;;;;;24.47;10.20;;;2.60;99.90;;;;;;4989549;28;20841;-67
2023/03/03 11:08:40;;;;;;;25.43;9.80;;;2.70;99.90;;;;;;4985154;28;20969;-65
2023/03/03 11:11:39;;;;;;;16.90;9.43;;;2.80;99.90;;;;;;4986746;28;20416;-66
2023/03/03 11:14:20;;;;;;;15.60;9.17;;;2.50;99.90;;;;;;4993952;28;20420;-66
2023/03/03 11:16:54;;;;;;;12.43;7.97;;;2.70;99.90;;;;;;4988396;28;20459;-66
2023/03/03 11:19:39;;;;;;;22.97;8.57;;;2.50;99.90;;;;;;4987658;28;21075;-69
2023/03/03 11:22:26;;;;;;;18.63;8.50;;;2.50;99.90;;;;;;4988103;28;20412;-65
2023/03/03 11:24:51;;;;;;;12.77;7.70;;;2.80;99.90;;;;;;4986335;28;20450;-65
2023/03/03 11:27:26;;;;;;;13.13;6.93;;;3.00;99.90;;;;;;4992151;28;20420;-64
2023/03/03 11:30:17;;;;;;;10.50;7.03;;;3.10;99.90;;;;;;4995105;28;20230;-65
2023/03/03 11:32:48;;;;;;;16.93;8.50;;;3.00;99.90;;;;;;4986181;28;20416;-64
2023/03/03 11:35:23;;;;;;;12.27;7.53;;;3.20;99.90;;;;;;4994373;28;20942;-64
2023/03/03 11:37:59;;;;;;;24.43;13.37;;;3.50;99.90;;;;;;5030374;23;20586;-69
2023/03/03 11:40:31;;;;;;;23.40;11.53;;;3.50;99.90;;;;;;5017524;28;20398;-68
2023/03/03 11:43:31;;;;;;;15.03;10.43;;;3.40;99.90;;;;;;5021141;28;20413;-67
2023/03/03 11:46:03;;;;;;;16.13;9.23;;;2.90;99.90;;;;;;5021737;28;21063;-69
2023/03/03 11:49:03;;;;;;;17.90;9.30;;;3.10;99.90;;;;;;5019175;28;20426;-67
2023/03/03 11:52:01;;;;;;;19.00;8.30;;;3.20;99.90;;;;;;5018311;28;20750;-68
2023/03/03 11:54:59;;;;;;;15.97;9.20;;;3.10;99.90;;;;;;5028755;28;20405;-67
2023/03/03 11:58:06;;;;;;;23.90;11.83;;;3.00;99.90;;;;;;5021080;28;20488;-66
2023/03/03 12:01:00;;;;;;;14.73;9.43;;;3.10;99.90;;;;;;4978455;28;21007;-67
2023/03/03 12:03:57;;;;;;;14.20;9.70;;;3.00;99.90;;;;;;4974267;28;20421;-69
2023/03/03 12:06:40;;;;;;;13.63;7.70;;;3.00;99.90;;;;;;5017550;28;20443;-67
2023/03/03 12:09:20;;;;;;;13.20;8.20;;;3.10;99.90;;;;;;5021794;28;20904;-69
2023/03/03 12:12:15;;;;;;;15.73;8.20;;;3.00;99.90;;;;;;5024355;28;20410;-68
2023/03/03 12:15:00;;;;;;;22.20;11.63;;;3.30;99.90;;;;;;5026781;28;20489;-68
2023/03/03 12:17:44;;;;;;;22.23;12.17;;;3.20;99.90;;;;;;5022308;28;20434;-68
2023/03/03 12:20:48;;;;;;;24.03;11.00;;;3.00;99.90;;;;;;5015809;28;20782;-70
2023/03/03 12:23:42;;;;;;;23.47;13.10;;;3.30;99.90;;;;;;5039020;28;20976;-67
2023/03/03 12:26:19;;;;;;;26.83;15.47;;;3.70;99.90;;;;;;5005301;28;20731;-68
2023/03/03 12:28:59;;;;;;;26.93;18.90;;;3.60;99.90;;;;;;5025452;28;20417;-67
2023/03/03 12:31:50;;;;;;;28.30;16.87;;;3.40;99.90;;;;;;5025307;28;20433;-69
2023/03/03 12:34:33;;;;;;;32.50;16.77;;;3.30;99.90;;;;;;5024003;28;20774;-68
2023/03/03 12:37:19;;;;;;;30.90;18.57;;;3.50;99.90;;;;;;5018057;28;20494;-68
2023/03/03 12:40:00;;;;;;;30.70;17.00;;;3.90;99.90;;;;;;5018216;28;20506;-67
2023/03/03 12:42:57;;;;;;;27.63;14.97;;;3.70;99.90;;;;;;5019754;28;20406;-75
2023/03/03 12:45:46;;;;;;;21.17;13.93;;;3.80;99.90;;;;;;5021509;28;20448;-69
2023/03/03 12:48:20;;;;;;;24.37;14.23;;;3.60;99.90;;;;;;5027999;28;20496;-67
2023/03/03 12:50:50;;;;;;;20.03;11.20;;;3.70;99.90;;;;;;5021414;28;20777;-68
2023/03/03 12:53:47;;;;;;;25.00;11.27;;;3.90;99.90;;;;;;5024821;28;20418;-69
2023/03/03 12:56:31;;;;;;;28.07;12.83;;;3.90;99.90;;;;;;5016387;28;20523;-68
2023/03/03 12:59:00;;;;;;;24.53;12.40;;;3.60;99.90;;;;;;5024313;28;20418;-69
2023/03/03 13:01:36;;;;;;;18.40;10.67;;;3.70;99.90;;;;;;5022758;28;20439;-68
2023/03/03 13:04:26;;;;;;;19.30;12.17;;;3.70;99.90;;;;;;5022924;28;20410;-68
2023/03/03 13:06:57;;;;;;;21.17;11.87;;;3.90;99.90;;;;;;5016485;28;20476;-69
2023/03/03 13:09:49;;;;;;;14.80;9.63;;;3.90;99.90;;;;;;5020408;28;20453;-67
2023/03/03 13:12:22;;;;;;;14.77;9.03;;;3.70;99.90;;;;;;5024154;28;20402;-66